sensor_id;sensor_type;location;lat;lon;timestamp;P1;durP1;ratioP1;P2;durP2;ratioP2
19951;SDS011;10137;49.406;19.484;2023-09-30T00:01:08;17.03;;;8.33;;
19951;SDS011;10137;49.406;19.484;2023-09-30T00:03:37;15.33;;;8.10;;
19951;SDS011;10137;49.406;19.484;2023-09-30T00:06:05;13.57;;;8.03;;
19951;SDS011;10137;49.406;19.484;2023-09-30T00:08:33;15.40;;;7.33;;
19951;SDS011;10137;49.406;19.484;2023-09-30T00:11:03;12.13;;;7.87;;
19951;SDS011;10137;49.406;19.484;2023-09-30T00:13:33;11.70;;;8.13;;
19951;SDS011;10137;49.406;19.484;2023-09-30T00:16:01;10.87;;;7.10;;
19951;SDS011;10137;49.406;19.484;2023-09-30T00:18:29;15.10;;;8.00;;
19951;SDS011;10137;49.406;19.484;2023-09-30T00:20:57;10.67;;;7.47;;
19951;SDS011;10137;49.406;19.484;2023-09-30T00:23:25;13.33;;;8.07;;
19951;SDS011;10137;49.406;19.484;2023-09-30T00:25:54;12.43;;;7.73;;
19951;SDS011;10137;49.406;19.484;2023-09-30T00:28:24;11.17;;;7.57;;
19951;SDS011;10137;49.406;19.484;2023-09-30T00:30:52;13.03;;;7.70;;
19951;SDS011;10137;49.406;19.484;2023-09-30T00:33:20;10.53;;;7.80;;
19951;SDS011;10137;49.406;19.484;2023-09-30T00:35:48;13.23;;;7.90;;
19951;SDS011;10137;49.406;19.484;2023-09-30T00:38:17;13.13;;;7.70;;
19951;SDS011;10137;49.406;19.484;2023-09-30T00:40:49;11.87;;;7.43;;
19951;SDS011;10137;49.406;19.484;2023-09-30T00:43:20;11.40;;;7.83;;
19951;SDS011;10137;49.406;19.484;2023-09-30T00:45:51;14.93;;;7.63;;
19951;SDS011;10137;49.406;19.484;2023-09-30T00:48:22;13.80;;;8.00;;
19951;SDS011;10137;49.406;19.484;2023-09-30T00:50:50;14.60;;;7.13;;
19951;SDS011;10137;49.406;19.484;2023-09-30T00:53:19;15.83;;;7.87;;
19951;SDS011;10137;49.406;19.484;2023-09-30T00:55:47;18.33;;;8.10;;
19951;SDS011;10137;49.406;19.484;2023-09-30T00:58:16;14.93;;;7.87;;
19951;SDS011;10137;49.406;19.484;2023-09-30T01:00:54;13.57;;;8.30;;
19951;SDS011;10137;49.406;19.484;2023-09-30T01:03:24;10.97;;;7.43;;
19951;SDS011;10137;49.406;19.484;2023-09-30T01:05:52;11.83;;;7.93;;
19951;SDS011;10137;49.406;19.484;2023-09-30T01:08:21;12.03;;;8.00;;
19951;SDS011;10137;49.406;19.484;2023-09-30T01:10:49;13.03;;;7.57;;
19951;SDS011;10137;49.406;19.484;2023-09-30T01:13:18;11.23;;;7.17;;
19951;SDS011;10137;49.406;19.484;2023-09-30T01:15:45;13.33;;;8.37;;
19951;SDS011;10137;49.406;19.484;2023-09-30T01:18:15;13.00;;;7.40;;
19951;SDS011;10137;49.406;19.484;2023-09-30T01:20:43;11.27;;;7.40;;
19951;SDS011;10137;49.406;19.484;2023-09-30T01:23:12;11.90;;;7.43;;
19951;SDS011;10137;49.406;19.484;2023-09-30T01:25:41;13.43;;;7.70;;
19951;SDS011;10137;49.406;19.484;2023-09-30T01:28:11;12.37;;;8.30;;
19951;SDS011;10137;49.406;19.484;2023-09-30T01:30:39;14.23;;;7.50;;
19951;SDS011;10137;49.406;19.484;2023-09-30T01:33:10;11.47;;;7.50;;
19951;SDS011;10137;49.406;19.484;2023-09-30T01:35:37;10.20;;;7.77;;
19951;SDS011;10137;49.406;19.484;2023-09-30T01:38:05;11.60;;;7.93;;
19951;SDS011;10137;49.406;19.484;2023-09-30T01:40:35;15.30;;;8.00;;
19951;SDS011;10137;49.406;19.484;2023-09-30T01:43:03;11.97;;;7.63;;
19951;SDS011;10137;49.406;19.484;2023-09-30T01:45:31;11.33;;;7.77;;
19951;SDS011;10137;49.406;19.484;2023-09-30T01:47:58;11.53;;;8.00;;
19951;SDS011;10137;49.406;19.484;2023-09-30T01:50:26;12.07;;;7.00;;
19951;SDS011;10137;49.406;19.484;2023-09-30T01:52:54;11.27;;;7.07;;
19951;SDS011;10137;49.406;19.484;2023-09-30T01:55:22;19.07;;;8.23;;
19951;SDS011;10137;49.406;19.484;2023-09-30T01:57:52;10.93;;;7.53;;
19951;SDS011;10137;49.406;19.484;2023-09-30T02:00:20;14.03;;;7.00;;
19951;SDS011;10137;49.406;19.484;2023-09-30T02:02:48;12.13;;;7.77;;
19951;SDS011;10137;49.406;19.484;2023-09-30T02:05:17;11.53;;;7.20;;
19951;SDS011;10137;49.406;19.484;2023-09-30T02:07:45;12.93;;;7.43;;
19951;SDS011;10137;49.406;19.484;2023-09-30T02:10:13;11.90;;;7.00;;
19951;SDS011;10137;49.406;19.484;2023-09-30T02:12:43;10.03;;;7.07;;
19951;SDS011;10137;49.406;19.484;2023-09-30T02:15:13;11.40;;;6.83;;
19951;SDS011;10137;49.406;19.484;2023-09-30T02:17:42;12.30;;;7.13;;
19951;SDS011;10137;49.406;19.484;2023-09-30T02:20:12;13.67;;;7.37;;
19951;SDS011;10137;49.406;19.484;2023-09-30T02:22:42;10.63;;;6.80;;
19951;SDS011;10137;49.406;19.484;2023-09-30T02:25:11;9.77;;;7.17;;
19951;SDS011;10137;49.406;19.484;2023-09-30T02:27:40;10.60;;;6.77;;
19951;SDS011;10137;49.406;19.484;2023-09-30T02:30:10;8.83;;;6.67;;
19951;SDS011;10137;49.406;19.484;2023-09-30T02:32:40;14.10;;;7.53;;
19951;SDS011;10137;49.406;19.484;2023-09-30T02:35:09;10.37;;;7.03;;
19951;SDS011;10137;49.406;19.484;2023-09-30T02:37:38;10.00;;;6.80;;
19951;SDS011;10137;49.406;19.484;2023-09-30T02:40:06;10.13;;;6.77;;
19951;SDS011;10137;49.406;19.484;2023-09-30T02:42:37;10.50;;;6.30;;
19951;SDS011;10137;49.406;19.484;2023-09-30T02:45:05;12.93;;;6.50;;
19951;SDS011;10137;49.406;19.484;2023-09-30T02:47:37;9.70;;;6.90;;
19951;SDS011;10137;49.406;19.484;2023-09-30T02:50:06;8.83;;;6.70;;
19951;SDS011;10137;49.406;19.484;2023-09-30T02:52:37;11.37;;;7.10;;
19951;SDS011;10137;49.406;19.484;2023-09-30T02:55:07;12.30;;;7.43;;
19951;SDS011;10137;49.406;19.484;2023-09-30T02:57:36;13.27;;;7.20;;
19951;SDS011;10137;49.406;19.484;2023-09-30T03:00:08;9.13;;;7.00;;
19951;SDS011;10137;49.406;19.484;2023-09-30T03:02:51;12.77;;;8.20;;
19951;SDS011;10137;49.406;19.484;2023-09-30T03:05:19;12.40;;;8.20;;
19951;SDS011;10137;49.406;19.484;2023-09-30T03:07:48;11.00;;;8.27;;
19951;SDS011;10137;49.406;19.484;2023-09-30T03:10:16;11.63;;;7.57;;
19951;SDS011;10137;49.406;19.484;2023-09-30T03:12:46;13.17;;;8.73;;
19951;SDS011;10137;49.406;19.484;2023-09-30T03:15:15;12.90;;;8.93;;
19951;SDS011;10137;49.406;19.484;2023-09-30T03:17:43;12.97;;;8.50;;
19951;SDS011;10137;49.406;19.484;2023-09-30T03:20:13;10.70;;;7.50;;
19951;SDS011;10137;49.406;19.484;2023-09-30T03:22:46;13.13;;;7.70;;
19951;SDS011;10137;49.406;19.484;2023-09-30T03:25:14;10.43;;;7.03;;
19951;SDS011;10137;49.406;19.484;2023-09-30T03:27:44;10.87;;;7.30;;
19951;SDS011;10137;49.406;19.484;2023-09-30T03:30:16;14.37;;;7.10;;
19951;SDS011;10137;49.406;19.484;2023-09-30T03:32:46;10.90;;;6.97;;
19951;SDS011;10137;49.406;19.484;2023-09-30T03:35:18;9.43;;;7.07;;
19951;SDS011;10137;49.406;19.484;2023-09-30T03:37:47;9.60;;;7.03;;
19951;SDS011;10137;49.406;19.484;2023-09-30T03:40:16;9.53;;;6.60;;
19951;SDS011;10137;49.406;19.484;2023-09-30T03:42:47;10.27;;;7.00;;
19951;SDS011;10137;49.406;19.484;2023-09-30T03:45:15;11.20;;;7.27;;
19951;SDS011;10137;49.406;19.484;2023-09-30T03:47:44;11.47;;;6.80;;
19951;SDS011;10137;49.406;19.484;2023-09-30T03:50:12;12.30;;;7.20;;
19951;SDS011;10137;49.406;19.484;2023-09-30T03:52:43;10.43;;;7.30;;
19951;SDS011;10137;49.406;19.484;2023-09-30T03:55:14;14.10;;;6.90;;
19951;SDS011;10137;49.406;19.484;2023-09-30T03:57:45;10.40;;;6.90;;
19951;SDS011;10137;49.406;19.484;2023-09-30T04:00:18;11.03;;;7.10;;
19951;SDS011;10137;49.406;19.484;2023-09-30T04:02:47;12.97;;;6.90;;
19951;SDS011;10137;49.406;19.484;2023-09-30T04:05:16;11.23;;;7.20;;
19951;SDS011;10137;49.406;19.484;2023-09-30T04:07:46;14.83;;;7.10;;
19951;SDS011;10137;49.406;19.484;2023-09-30T04:10:14;11.53;;;7.27;;
19951;SDS011;10137;49.406;19.484;2023-09-30T04:12:42;10.00;;;7.20;;
19951;SDS011;10137;49.406;19.484;2023-09-30T04:15:10;8.67;;;7.17;;
19951;SDS011;10137;49.406;19.484;2023-09-30T04:17:38;11.03;;;6.73;;
19951;SDS011;10137;49.406;19.484;2023-09-30T04:20:07;12.87;;;7.00;;
19951;SDS011;10137;49.406;19.484;2023-09-30T04:22:37;16.07;;;7.00;;
19951;SDS011;10137;49.406;19.484;2023-09-30T04:25:08;18.27;;;7.77;;
19951;SDS011;10137;49.406;19.484;2023-09-30T04:27:37;23.70;;;7.43;;
19951;SDS011;10137;49.406;19.484;2023-09-30T04:30:06;17.43;;;8.33;;
19951;SDS011;10137;49.406;19.484;2023-09-30T04:32:37;19.43;;;8.20;;
19951;SDS011;10137;49.406;19.484;2023-09-30T04:35:06;27.10;;;8.17;;
19951;SDS011;10137;49.406;19.484;2023-09-30T04:37:35;23.67;;;9.37;;
19951;SDS011;10137;49.406;19.484;2023-09-30T04:40:04;18.07;;;8.53;;
19951;SDS011;10137;49.406;19.484;2023-09-30T04:42:43;16.90;;;8.30;;
19951;SDS011;10137;49.406;19.484;2023-09-30T04:45:13;15.93;;;7.60;;
19951;SDS011;10137;49.406;19.484;2023-09-30T04:47:42;14.97;;;7.30;;
19951;SDS011;10137;49.406;19.484;2023-09-30T04:50:12;10.63;;;7.10;;
19951;SDS011;10137;49.406;19.484;2023-09-30T04:52:42;12.83;;;7.23;;
19951;SDS011;10137;49.406;19.484;2023-09-30T04:55:11;18.27;;;8.10;;
19951;SDS011;10137;49.406;19.484;2023-09-30T04:57:44;12.43;;;6.70;;
19951;SDS011;10137;49.406;19.484;2023-09-30T05:00:21;9.23;;;6.77;;
19951;SDS011;10137;49.406;19.484;2023-09-30T05:02:52;11.43;;;6.77;;
19951;SDS011;10137;49.406;19.484;2023-09-30T05:05:23;11.57;;;6.50;;
19951;SDS011;10137;49.406;19.484;2023-09-30T05:07:51;9.53;;;6.90;;
19951;SDS011;10137;49.406;19.484;2023-09-30T05:10:21;15.50;;;7.67;;
19951;SDS011;10137;49.406;19.484;2023-09-30T05:12:52;19.33;;;9.13;;
19951;SDS011;10137;49.406;19.484;2023-09-30T05:15:20;20.20;;;10.07;;
19951;SDS011;10137;49.406;19.484;2023-09-30T05:17:49;18.63;;;9.13;;
19951;SDS011;10137;49.406;19.484;2023-09-30T05:20:17;17.97;;;11.97;;
19951;SDS011;10137;49.406;19.484;2023-09-30T05:22:46;21.97;;;11.47;;
19951;SDS011;10137;49.406;19.484;2023-09-30T05:25:15;15.57;;;11.10;;
19951;SDS011;10137;49.406;19.484;2023-09-30T05:27:44;18.70;;;10.97;;
19951;SDS011;10137;49.406;19.484;2023-09-30T05:30:15;18.70;;;9.67;;
19951;SDS011;10137;49.406;19.484;2023-09-30T05:32:44;24.87;;;10.13;;
19951;SDS011;10137;49.406;19.484;2023-09-30T05:35:12;21.57;;;8.97;;
19951;SDS011;10137;49.406;19.484;2023-09-30T05:37:42;16.57;;;8.93;;
19951;SDS011;10137;49.406;19.484;2023-09-30T05:40:12;13.77;;;8.30;;
19951;SDS011;10137;49.406;19.484;2023-09-30T05:42:48;17.80;;;7.90;;
19951;SDS011;10137;49.406;19.484;2023-09-30T05:45:18;13.10;;;8.03;;
19951;SDS011;10137;49.406;19.484;2023-09-30T05:47:47;18.77;;;9.57;;
19951;SDS011;10137;49.406;19.484;2023-09-30T05:50:14;17.80;;;8.70;;
19951;SDS011;10137;49.406;19.484;2023-09-30T05:52:42;18.10;;;8.97;;
19951;SDS011;10137;49.406;19.484;2023-09-30T05:55:12;21.77;;;8.33;;
19951;SDS011;10137;49.406;19.484;2023-09-30T05:57:41;20.23;;;8.43;;
19951;SDS011;10137;49.406;19.484;2023-09-30T06:00:13;14.70;;;8.33;;
19951;SDS011;10137;49.406;19.484;2023-09-30T06:02:56;18.20;;;8.20;;
19951;SDS011;10137;49.406;19.484;2023-09-30T06:05:24;15.40;;;7.60;;
19951;SDS011;10137;49.406;19.484;2023-09-30T06:07:56;14.23;;;7.57;;
19951;SDS011;10137;49.406;19.484;2023-09-30T06:10:24;12.50;;;8.27;;
19951;SDS011;10137;49.406;19.484;2023-09-30T06:12:53;12.87;;;7.87;;
19951;SDS011;10137;49.406;19.484;2023-09-30T06:15:24;15.83;;;7.87;;
19951;SDS011;10137;49.406;19.484;2023-09-30T06:18:00;12.67;;;8.30;;
19951;SDS011;10137;49.406;19.484;2023-09-30T06:20:28;14.93;;;8.30;;
19951;SDS011;10137;49.406;19.484;2023-09-30T06:22:57;13.00;;;7.50;;
19951;SDS011;10137;49.406;19.484;2023-09-30T06:25:27;11.27;;;8.13;;
19951;SDS011;10137;49.406;19.484;2023-09-30T06:27:57;14.83;;;8.73;;
19951;SDS011;10137;49.406;19.484;2023-09-30T06:30:25;12.83;;;8.10;;
19951;SDS011;10137;49.406;19.484;2023-09-30T06:32:57;15.57;;;8.10;;
19951;SDS011;10137;49.406;19.484;2023-09-30T06:35:26;15.63;;;8.53;;
19951;SDS011;10137;49.406;19.484;2023-09-30T06:37:56;13.03;;;8.57;;
19951;SDS011;10137;49.406;19.484;2023-09-30T06:40:24;14.17;;;8.27;;
19951;SDS011;10137;49.406;19.484;2023-09-30T06:42:51;17.67;;;8.80;;
19951;SDS011;10137;49.406;19.484;2023-09-30T06:45:24;15.87;;;8.77;;
19951;SDS011;10137;49.406;19.484;2023-09-30T06:47:57;16.07;;;8.87;;
19951;SDS011;10137;49.406;19.484;2023-09-30T06:50:26;12.07;;;8.53;;
19951;SDS011;10137;49.406;19.484;2023-09-30T06:52:54;14.73;;;8.93;;
19951;SDS011;10137;49.406;19.484;2023-09-30T06:55:22;14.93;;;8.53;;
19951;SDS011;10137;49.406;19.484;2023-09-30T06:57:55;18.63;;;9.63;;
19951;SDS011;10137;49.406;19.484;2023-09-30T07:00:23;14.37;;;8.70;;
19951;SDS011;10137;49.406;19.484;2023-09-30T07:02:51;10.90;;;8.60;;
19951;SDS011;10137;49.406;19.484;2023-09-30T07:05:22;18.70;;;9.13;;
19951;SDS011;10137;49.406;19.484;2023-09-30T07:07:50;11.80;;;8.87;;
19951;SDS011;10137;49.406;19.484;2023-09-30T07:10:18;12.13;;;8.10;;
19951;SDS011;10137;49.406;19.484;2023-09-30T07:12:46;13.87;;;8.60;;
19951;SDS011;10137;49.406;19.484;2023-09-30T07:15:15;13.80;;;8.97;;
19951;SDS011;10137;49.406;19.484;2023-09-30T07:17:43;11.27;;;8.23;;
19951;SDS011;10137;49.406;19.484;2023-09-30T07:20:12;18.53;;;9.03;;
19951;SDS011;10137;49.406;19.484;2023-09-30T07:22:42;14.97;;;8.93;;
19951;SDS011;10137;49.406;19.484;2023-09-30T07:25:11;14.17;;;8.67;;
19951;SDS011;10137;49.406;19.484;2023-09-30T07:27:38;15.83;;;9.80;;
19951;SDS011;10137;49.406;19.484;2023-09-30T07:30:05;16.07;;;9.20;;
19951;SDS011;10137;49.406;19.484;2023-09-30T07:32:34;12.67;;;8.90;;
19951;SDS011;10137;49.406;19.484;2023-09-30T07:35:02;13.47;;;9.13;;
19951;SDS011;10137;49.406;19.484;2023-09-30T07:37:31;14.20;;;9.70;;
19951;SDS011;10137;49.406;19.484;2023-09-30T07:40:03;18.03;;;10.07;;
19951;SDS011;10137;49.406;19.484;2023-09-30T07:42:32;16.47;;;10.23;;
19951;SDS011;10137;49.406;19.484;2023-09-30T07:45:01;17.83;;;10.57;;
19951;SDS011;10137;49.406;19.484;2023-09-30T07:47:30;17.87;;;10.07;;
19951;SDS011;10137;49.406;19.484;2023-09-30T07:49:59;14.10;;;9.80;;
19951;SDS011;10137;49.406;19.484;2023-09-30T07:52:28;16.43;;;10.00;;
19951;SDS011;10137;49.406;19.484;2023-09-30T07:54:57;13.63;;;10.00;;
19951;SDS011;10137;49.406;19.484;2023-09-30T07:57:26;18.27;;;10.97;;
19951;SDS011;10137;49.406;19.484;2023-09-30T07:59:55;19.00;;;10.83;;
19951;SDS011;10137;49.406;19.484;2023-09-30T08:02:23;24.83;;;11.20;;
19951;SDS011;10137;49.406;19.484;2023-09-30T08:04:59;24.77;;;11.33;;
19951;SDS011;10137;49.406;19.484;2023-09-30T08:07:27;26.50;;;11.93;;
19951;SDS011;10137;49.406;19.484;2023-09-30T08:09:55;24.87;;;10.93;;
19951;SDS011;10137;49.406;19.484;2023-09-30T08:12:23;24.63;;;11.67;;
19951;SDS011;10137;49.406;19.484;2023-09-30T08:14:53;33.60;;;12.53;;
19951;SDS011;10137;49.406;19.484;2023-09-30T08:17:21;30.30;;;11.83;;
19951;SDS011;10137;49.406;19.484;2023-09-30T08:19:49;31.17;;;12.00;;
19951;SDS011;10137;49.406;19.484;2023-09-30T08:22:17;26.47;;;12.20;;
19951;SDS011;10137;49.406;19.484;2023-09-30T08:24:46;26.57;;;11.67;;
19951;SDS011;10137;49.406;19.484;2023-09-30T08:27:12;24.30;;;11.40;;
19951;SDS011;10137;49.406;19.484;2023-09-30T08:29:40;36.60;;;13.90;;
19951;SDS011;10137;49.406;19.484;2023-09-30T08:32:10;22.83;;;15.17;;
19951;SDS011;10137;49.406;19.484;2023-09-30T08:34:38;24.70;;;14.57;;
19951;SDS011;10137;49.406;19.484;2023-09-30T08:37:06;22.70;;;14.43;;
19951;SDS011;10137;49.406;19.484;2023-09-30T08:39:37;25.83;;;14.73;;
19951;SDS011;10137;49.406;19.484;2023-09-30T08:42:06;23.23;;;13.40;;
19951;SDS011;10137;49.406;19.484;2023-09-30T08:44:37;20.37;;;14.83;;
19951;SDS011;10137;49.406;19.484;2023-09-30T08:47:06;30.27;;;14.97;;
19951;SDS011;10137;49.406;19.484;2023-09-30T08:49:37;21.43;;;14.00;;
19951;SDS011;10137;49.406;19.484;2023-09-30T08:52:09;20.20;;;13.17;;
19951;SDS011;10137;49.406;19.484;2023-09-30T08:54:39;22.27;;;14.60;;
19951;SDS011;10137;49.406;19.484;2023-09-30T08:57:08;27.13;;;16.93;;
19951;SDS011;10137;49.406;19.484;2023-09-30T08:59:37;22.13;;;16.10;;
19951;SDS011;10137;49.406;19.484;2023-09-30T09:02:09;25.63;;;15.67;;
19951;SDS011;10137;49.406;19.484;2023-09-30T09:04:46;18.57;;;13.27;;
19951;SDS011;10137;49.406;19.484;2023-09-30T09:07:16;19.80;;;13.50;;
19951;SDS011;10137;49.406;19.484;2023-09-30T09:12:32;22.27;;;13.73;;
19951;SDS011;10137;49.406;19.484;2023-09-30T09:15:03;33.20;;;15.30;;
19951;SDS011;10137;49.406;19.484;2023-09-30T09:17:40;25.73;;;15.40;;
19951;SDS011;10137;49.406;19.484;2023-09-30T09:20:11;18.77;;;13.97;;
19951;SDS011;10137;49.406;19.484;2023-09-30T09:22:46;21.53;;;13.93;;
19951;SDS011;10137;49.406;19.484;2023-09-30T09:25:17;20.00;;;13.83;;
19951;SDS011;10137;49.406;19.484;2023-09-30T09:27:45;19.03;;;13.13;;
19951;SDS011;10137;49.406;19.484;2023-09-30T09:30:17;19.00;;;13.70;;
19951;SDS011;10137;49.406;19.484;2023-09-30T09:32:53;20.63;;;14.03;;
19951;SDS011;10137;49.406;19.484;2023-09-30T09:35:23;18.23;;;13.57;;
19951;SDS011;10137;49.406;19.484;2023-09-30T09:37:56;24.70;;;16.80;;
19951;SDS011;10137;49.406;19.484;2023-09-30T09:40:25;22.17;;;15.93;;
19951;SDS011;10137;49.406;19.484;2023-09-30T09:42:54;26.70;;;17.10;;
19951;SDS011;10137;49.406;19.484;2023-09-30T09:45:24;23.70;;;15.27;;
19951;SDS011;10137;49.406;19.484;2023-09-30T09:47:53;22.27;;;15.67;;
19951;SDS011;10137;49.406;19.484;2023-09-30T09:50:24;24.97;;;16.87;;
19951;SDS011;10137;49.406;19.484;2023-09-30T09:52:54;32.20;;;19.73;;
19951;SDS011;10137;49.406;19.484;2023-09-30T09:55:23;29.63;;;18.13;;
19951;SDS011;10137;49.406;19.484;2023-09-30T09:57:52;25.27;;;16.43;;
19951;SDS011;10137;49.406;19.484;2023-09-30T10:00:21;28.13;;;18.00;;
19951;SDS011;10137;49.406;19.484;2023-09-30T10:02:50;33.97;;;20.77;;
19951;SDS011;10137;49.406;19.484;2023-09-30T10:05:17;29.23;;;17.57;;
19951;SDS011;10137;49.406;19.484;2023-09-30T10:07:50;23.50;;;16.70;;
19951;SDS011;10137;49.406;19.484;2023-09-30T10:10:20;22.20;;;15.43;;
19951;SDS011;10137;49.406;19.484;2023-09-30T10:12:49;24.77;;;14.57;;
19951;SDS011;10137;49.406;19.484;2023-09-30T10:15:34;20.47;;;13.13;;
19951;SDS011;10137;49.406;19.484;2023-09-30T10:18:05;20.87;;;14.40;;
19951;SDS011;10137;49.406;19.484;2023-09-30T10:20:35;19.37;;;14.00;;
19951;SDS011;10137;49.406;19.484;2023-09-30T10:25:47;20.37;;;13.47;;
19951;SDS011;10137;49.406;19.484;2023-09-30T10:28:35;21.17;;;13.83;;
19951;SDS011;10137;49.406;19.484;2023-09-30T10:31:13;23.30;;;15.63;;
19951;SDS011;10137;49.406;19.484;2023-09-30T10:36:45;50.37;;;25.80;;
19951;SDS011;10137;49.406;19.484;2023-09-30T10:39:19;39.67;;;20.70;;
19951;SDS011;10137;49.406;19.484;2023-09-30T10:51:00;15.53;;;10.10;;
19951;SDS011;10137;49.406;19.484;2023-09-30T10:53:29;12.73;;;8.73;;
19951;SDS011;10137;49.406;19.484;2023-09-30T10:55:58;12.17;;;8.13;;
19951;SDS011;10137;49.406;19.484;2023-09-30T10:58:38;13.10;;;9.07;;
19951;SDS011;10137;49.406;19.484;2023-09-30T11:01:06;12.63;;;8.23;;
19951;SDS011;10137;49.406;19.484;2023-09-30T11:03:33;12.60;;;8.40;;
19951;SDS011;10137;49.406;19.484;2023-09-30T11:06:00;15.47;;;8.60;;
19951;SDS011;10137;49.406;19.484;2023-09-30T11:08:28;13.40;;;8.43;;
19951;SDS011;10137;49.406;19.484;2023-09-30T11:10:57;13.97;;;9.17;;
19951;SDS011;10137;49.406;19.484;2023-09-30T11:13:30;14.03;;;9.13;;
19951;SDS011;10137;49.406;19.484;2023-09-30T11:16:00;12.53;;;9.13;;
19951;SDS011;10137;49.406;19.484;2023-09-30T11:18:29;17.93;;;9.63;;
19951;SDS011;10137;49.406;19.484;2023-09-30T11:21:04;13.87;;;8.63;;
19951;SDS011;10137;49.406;19.484;2023-09-30T11:23:36;12.70;;;8.07;;
19951;SDS011;10137;49.406;19.484;2023-09-30T11:26:05;10.43;;;7.67;;
19951;SDS011;10137;49.406;19.484;2023-09-30T11:28:35;12.87;;;8.37;;
19951;SDS011;10137;49.406;19.484;2023-09-30T11:31:06;12.03;;;8.47;;
19951;SDS011;10137;49.406;19.484;2023-09-30T11:33:46;14.73;;;8.80;;
19951;SDS011;10137;49.406;19.484;2023-09-30T11:36:14;14.50;;;9.73;;
19951;SDS011;10137;49.406;19.484;2023-09-30T11:38:44;13.33;;;9.43;;
19951;SDS011;10137;49.406;19.484;2023-09-30T11:41:13;18.10;;;10.50;;
19951;SDS011;10137;49.406;19.484;2023-09-30T11:43:57;15.60;;;10.23;;
19951;SDS011;10137;49.406;19.484;2023-09-30T11:46:25;17.50;;;12.37;;
19951;SDS011;10137;49.406;19.484;2023-09-30T11:48:56;20.43;;;13.23;;
19951;SDS011;10137;49.406;19.484;2023-09-30T11:51:25;19.07;;;11.97;;
19951;SDS011;10137;49.406;19.484;2023-09-30T11:53:52;20.83;;;12.67;;
19951;SDS011;10137;49.406;19.484;2023-09-30T11:56:21;17.20;;;10.67;;
19951;SDS011;10137;49.406;19.484;2023-09-30T11:58:53;14.67;;;9.30;;
19951;SDS011;10137;49.406;19.484;2023-09-30T12:01:19;19.73;;;11.53;;
19951;SDS011;10137;49.406;19.484;2023-09-30T12:03:48;17.73;;;10.70;;
19951;SDS011;10137;49.406;19.484;2023-09-30T12:06:16;20.97;;;14.17;;
19951;SDS011;10137;49.406;19.484;2023-09-30T12:08:43;27.97;;;15.77;;
19951;SDS011;10137;49.406;19.484;2023-09-30T12:11:11;25.20;;;14.47;;
19951;SDS011;10137;49.406;19.484;2023-09-30T12:13:42;28.23;;;16.43;;
19951;SDS011;10137;49.406;19.484;2023-09-30T12:16:10;18.97;;;13.03;;
19951;SDS011;10137;49.406;19.484;2023-09-30T12:18:38;20.60;;;12.43;;
19951;SDS011;10137;49.406;19.484;2023-09-30T12:21:06;19.27;;;11.13;;
19951;SDS011;10137;49.406;19.484;2023-09-30T12:23:33;17.23;;;10.10;;
19951;SDS011;10137;49.406;19.484;2023-09-30T12:26:01;12.90;;;9.63;;
19951;SDS011;10137;49.406;19.484;2023-09-30T12:28:30;15.67;;;10.43;;
19951;SDS011;10137;49.406;19.484;2023-09-30T12:30:59;14.97;;;11.13;;
19951;SDS011;10137;49.406;19.484;2023-09-30T12:33:28;22.83;;;13.67;;
19951;SDS011;10137;49.406;19.484;2023-09-30T12:35:55;20.97;;;13.17;;
19951;SDS011;10137;49.406;19.484;2023-09-30T12:38:22;20.07;;;13.47;;
19951;SDS011;10137;49.406;19.484;2023-09-30T12:40:50;16.37;;;12.37;;
19951;SDS011;10137;49.406;19.484;2023-09-30T12:43:18;20.87;;;13.20;;
19951;SDS011;10137;49.406;19.484;2023-09-30T12:45:45;20.60;;;12.17;;
19951;SDS011;10137;49.406;19.484;2023-09-30T12:48:13;23.70;;;14.87;;
19951;SDS011;10137;49.406;19.484;2023-09-30T12:50:42;21.83;;;14.03;;
19951;SDS011;10137;49.406;19.484;2023-09-30T12:53:09;24.17;;;14.47;;
19951;SDS011;10137;49.406;19.484;2023-09-30T12:55:36;26.20;;;15.17;;
19951;SDS011;10137;49.406;19.484;2023-09-30T12:58:03;25.40;;;16.13;;
19951;SDS011;10137;49.406;19.484;2023-09-30T13:00:30;26.73;;;16.10;;
19951;SDS011;10137;49.406;19.484;2023-09-30T13:02:58;29.07;;;14.63;;
19951;SDS011;10137;49.406;19.484;2023-09-30T13:05:26;19.63;;;12.77;;
19951;SDS011;10137;49.406;19.484;2023-09-30T13:07:54;18.03;;;13.37;;
19951;SDS011;10137;49.406;19.484;2023-09-30T13:10:21;20.43;;;14.13;;
19951;SDS011;10137;49.406;19.484;2023-09-30T13:12:48;20.77;;;12.97;;
19951;SDS011;10137;49.406;19.484;2023-09-30T13:15:15;15.90;;;10.67;;
19951;SDS011;10137;49.406;19.484;2023-09-30T13:17:43;15.47;;;12.27;;
19951;SDS011;10137;49.406;19.484;2023-09-30T13:20:11;17.03;;;12.20;;
19951;SDS011;10137;49.406;19.484;2023-09-30T13:22:39;16.77;;;12.03;;
19951;SDS011;10137;49.406;19.484;2023-09-30T13:25:06;17.80;;;12.00;;
19951;SDS011;10137;49.406;19.484;2023-09-30T13:27:37;17.67;;;11.47;;
19951;SDS011;10137;49.406;19.484;2023-09-30T13:30:05;18.97;;;11.40;;
19951;SDS011;10137;49.406;19.484;2023-09-30T13:32:33;22.40;;;11.87;;
19951;SDS011;10137;49.406;19.484;2023-09-30T13:35:01;28.10;;;13.60;;
19951;SDS011;10137;49.406;19.484;2023-09-30T13:37:29;21.67;;;13.37;;
19951;SDS011;10137;49.406;19.484;2023-09-30T13:39:59;24.77;;;15.20;;
19951;SDS011;10137;49.406;19.484;2023-09-30T13:42:27;25.20;;;15.47;;
19951;SDS011;10137;49.406;19.484;2023-09-30T13:44:55;24.10;;;15.60;;
19951;SDS011;10137;49.406;19.484;2023-09-30T13:47:23;20.80;;;13.90;;
19951;SDS011;10137;49.406;19.484;2023-09-30T13:49:51;19.60;;;14.73;;
19951;SDS011;10137;49.406;19.484;2023-09-30T13:52:18;23.97;;;16.07;;
19951;SDS011;10137;49.406;19.484;2023-09-30T13:54:45;24.33;;;16.67;;
19951;SDS011;10137;49.406;19.484;2023-09-30T13:57:13;21.20;;;15.27;;
19951;SDS011;10137;49.406;19.484;2023-09-30T13:59:40;21.07;;;15.87;;
19951;SDS011;10137;49.406;19.484;2023-09-30T14:02:08;21.53;;;14.73;;
19951;SDS011;10137;49.406;19.484;2023-09-30T14:04:35;21.20;;;15.73;;
19951;SDS011;10137;49.406;19.484;2023-09-30T14:07:02;21.03;;;15.47;;
19951;SDS011;10137;49.406;19.484;2023-09-30T14:09:30;24.57;;;17.13;;
19951;SDS011;10137;49.406;19.484;2023-09-30T14:11:58;25.97;;;17.13;;
19951;SDS011;10137;49.406;19.484;2023-09-30T14:14:26;24.20;;;13.87;;
19951;SDS011;10137;49.406;19.484;2023-09-30T14:16:53;18.20;;;13.03;;
19951;SDS011;10137;49.406;19.484;2023-09-30T14:19:20;16.83;;;12.20;;
19951;SDS011;10137;49.406;19.484;2023-09-30T14:21:47;16.07;;;11.87;;
19951;SDS011;10137;49.406;19.484;2023-09-30T14:24:14;17.00;;;11.80;;
19951;SDS011;10137;49.406;19.484;2023-09-30T14:26:41;17.07;;;12.27;;
19951;SDS011;10137;49.406;19.484;2023-09-30T14:29:09;14.37;;;11.07;;
19951;SDS011;10137;49.406;19.484;2023-09-30T14:31:38;12.53;;;10.13;;
19951;SDS011;10137;49.406;19.484;2023-09-30T14:34:06;15.00;;;10.87;;
19951;SDS011;10137;49.406;19.484;2023-09-30T14:36:33;11.00;;;9.00;;
19951;SDS011;10137;49.406;19.484;2023-09-30T14:39:00;11.67;;;8.90;;
19951;SDS011;10137;49.406;19.484;2023-09-30T14:41:27;11.37;;;8.90;;
19951;SDS011;10137;49.406;19.484;2023-09-30T14:43:54;10.43;;;7.93;;
19951;SDS011;10137;49.406;19.484;2023-09-30T14:46:21;13.97;;;8.97;;